Gordon, Ohio
Current Conditions -  °F | °C
As of 4:56 PM on Saturday 25 Oct 2014 (Local Time) from KDAY Reporting Station
Few Clouds Few Clouds  
Wind Chill: 75°   Ceiling: Unl
Heat Index: 75°   Visibility: 10mi
Dew Point: 49°   Wind: 15mph
Humidity: 40%   Direction: 280°W
Pressure: 29.89"   Gusts: 24mph
Location:  39.93°N, 84.51°W
Report Text: KDAY 252056Z 28013G21KT 10SM FEW250 24/09 A2989 RMK AO2 SLP117 T02390094 56006
Loading
Personal Weather Stations






























Interactive Weather Map
Tropical Storm Tracking
New forecast layout! Learn more

10-Day Weather Forecast

Advertisements
Track Severe Weather on mobile